Kezdőlap
METAR-TAF:

METAR-TAF

Repülőterek :

Konstanca, Románia

földrajzi szélesség: 44-20N, földrajzi hosszúság: 028-26E, magasság: 97 m

Jelenlegi meteorológiai megfigyelések

A jelentés 11 perccel ezelõtt készült, 06:30 UTC
Kelet-délkeleti szél 8 kt
Hőmérséklet 10°C
Páratartalom 87%
Légköri nyomás 1028 hPa
Látótávolság 10 km, vagy több
felhőtlen 1500 m magasságban, és nincs gomolyfelhõ

METAR: LRCK 240630Z 11008KT CAVOK 10/08 Q1028 R18/29//95 NOSIG

Idő: 09:41 (06:41 UTC)

Előrejelzés

A jelentés 1 órával és 41 perccel ezelõtt készült, 05:00 UTC
Az előrejelzés 24-én 06 óra UTC és 25-én 06 óra UTC között érvényes
Délkeleti szél 8 kt
Látótávolság 10 km, vagy több
felhőtlen 1500 m magasságban, és nincs gomolyfelhõ
24-én 06 óra UTC és 24-én 09 óra UTC között ideiglenes
Látótávolság: 5000 m
enyhe esõ, Párásság

TAF: LRCK 240500Z 2406/2506 13008KT CAVOK TEMPO 2406/2409 5000 -RA BR

Meteorológiai megfigyelések és előrejelzések több, mint 4000 repülőtéren (METAR és TAF jelentéseket).

A térképen piros és sárga pontok jelzik az elérhető meteorológiai állomásokat.

Mozgassa az egeret a pont fölött, hogy megjelenjen az állomás neve.

Azután kattintson az időjárási megfigyelések és előrejelzések megtekintéséhez.

A térkép megváltoztatása: kattintson a fekete keresztel jelölt zöld gombra ráközelítéshez, a vonallal jelölt zöld gombra távolításhoz, vagy a zöld nyilakra a szomszédos térképek eléréséhez.


METAR-TAF: